Impacts TAF Board INFO
FOR SITUATIONAL AWARENESS. NOT TO BE USED FOR FLIGHT PLANNING PURPOSES.
IDs:

KATL - Atlanta/Hartsfield-J, GA, US

Issued at 1028 UTC 23 Feb 2018
Updated at 1033 UTC 23 Feb 2018
Potential Impact None Slight Moderate High
Time0952Z 23/11Z 23/12Z 23/13Z 23/14Z 23/15Z 23/16Z 23/17Z 23/18Z 23/19Z 23/20Z 23/21Z 23/22Z 23/23Z>>
Type OBS PRVL PRVL
  [TEMP]  
PRVL
  [TEMP]  
PRVL PRVL PRVL PRVL PRVL PRVL PRVL PRVL PRVL PRVL
VIS 10 >6 >6 >6 >6 >6 >6 >6 >6 >6 >6 >6 >6 >6
CIG -- -- --
  [20]  
--
  [20]  
-- 30 30 30 45 45 45 45 45 45
Cover CLR SCT SCT
  [BKN]  
SCT
  [BKN]  
SCT BKN BKN BKN BKN BKN BKN BKN BKN BKN
FltCat VFR VFR VFR
  [MVFR]  
VFR
  [MVFR]  
VFR MVFR MVFR MVFR VFR VFR VFR VFR VFR VFR
WX -- -- --
  [--]  
--
  [--]  
-- -- -- -- -- -- -- -- -- --
WDir VRB 140 140
[130]
140
[130]
140 150 150 150 170 170 170 170 170 170
WSpd 0 4 4
  [5]  
4
  [5]  
4 8 8 8 9 9 9 9 9 9
WGst -- -- --
  [--]  
--
  [--]  
-- -- -- -- -- -- -- -- -- --

Raw TAF
KATL 231028Z 2310/2412 14004KT P6SM SCT100
  TEMPO 2312/2314 13005KT BKN020
  FM231500 15008KT P6SM BKN030
  FM231800 17009KT P6SM BKN045 BKN100
  FM240000 16007KT P6SM SCT040 BKN120
  FM240500 13004KT P6SM OVC100


Raw METAR
KATL 230952Z 00000KT 10SM CLR 16/16 A3039 RMK AO2 SLP283 T01610156
KATL 230852Z 13004KT 10SM CLR 17/16 A3038 RMK AO2 SLP281 T01670156 58003
KATL 230752Z 11003KT 10SM CLR 17/16 A3038 RMK AO2 SLP282 T01720161

METAR Board
Radar Display
Forecast Discussion

FOR SITUATIONAL AWARENESS. NOT TO BE USED FOR FLIGHT PLANNING PURPOSES.